Airfield :
LOGIN :

Register | Disclaimer

   EN    FR    IT 

 










Legend :    VFR   Marginal VFR   IFR   Intensive IFR   Very Intensive IFR
Visi :
Ceiling :
>= 8 km
>= 3000ft
5 to 8 km
1000 to 3000 ft
1500m to 5 km
500 to 1000 ft
800 to 1500m
200 to 500 ft
< 800m
< 200 ft
Symbols :   Thunderstorms  Fog  Heavy snow  Heavy precipitations  Wind > 20 kt
SIGMETs :     Misc.  Thunderstorms  Icing  Turbulence  Mountain Waves  Volcanic Ashes






- Airport Elevation : 97 ft
- IATA code : EBJ


EKEB - Esbjerg

CURRENT METAR :
  • 211220Z AUTO 16008KT 5000 -RA BKN004/// 13/12 Q1000 RERA

EXPIRED METARs :
  • 211150Z AUTO 16007KT 3800 -RA BR BKN004/// 13/12 Q1001
  • 211120Z AUTO 16009KT 4800 DZ BR OVC004/// 13/12 Q1001
  • 211050Z AUTO 17012KT 5000 DZ OVC004/// 12/12 Q1002
  • 211020Z AUTO 16008KT 4000 DZ BR OVC003/// 12/12 Q1002
  • 210950Z AUTO 17008KT 3800 DZ BR OVC003/// 12/12 Q1003

TAF TAF EKEB
Valid from the 21 at 12:00 until the 21 at 21:00 UTC


211105Z 2112/2121 16010KT 2500 BR BKN004
TEMPO 2112/2118 5000 RADZ BKN006
BECMG 2118/2120 20025G40KT 6000 -RADZ BKN015
TEMPO 2120/2121 4000 BKN008



MET'MAP, your aeronautical weather chart ! - Copyright ORBIFLY December 2007 - Disclaimer

ORBIFLY MET'MAP TEAM :

Programming & Development : Alexandra Zaïnal
Concept & original design : Baudouin d'Aumeries
Assistance for programming : Marc-Olivier Méhu
Technical & hardware support : Manuel Goepfert

Contact : metmap@orbifly.com




SOURCES & CREDITS :

   NOAA